sensor_id;sensor_type;location;lat;lon;timestamp;pressure;altitude;pressure_sealevel;temperature;humidity
7058;BME280;3570;43.080;25.628;2022-07-23T00:00:14;-20103.81;;;22.41;64.05
7058;BME280;3570;43.080;25.628;2022-07-23T00:02:59;-20115.81;;;22.83;64.16
7058;BME280;3570;43.080;25.628;2022-07-23T00:05:44;-20112.34;;;22.71;62.10
7058;BME280;3570;43.080;25.628;2022-07-23T00:08:28;-20090.78;;;21.96;62.60
7058;BME280;3570;43.080;25.628;2022-07-23T00:11:12;-20077.47;;;21.49;66.42
7058;BME280;3570;43.080;25.628;2022-07-23T00:13:56;-20086.16;;;21.80;64.28
7058;BME280;3570;43.080;25.628;2022-07-23T00:16:41;-20100.34;;;22.29;67.08
7058;BME280;3570;43.080;25.628;2022-07-23T00:19:25;-20113.78;;;22.76;66.34
7058;BME280;3570;43.080;25.628;2022-07-23T00:22:09;-20126.22;;;23.19;64.83
7058;BME280;3570;43.080;25.628;2022-07-23T00:24:53;-20127.53;;;23.23;63.89
7058;BME280;3570;43.080;25.628;2022-07-23T00:27:37;-20132.72;;;23.42;62.58
7058;BME280;3570;43.080;25.628;2022-07-23T00:30:21;-20133.03;;;23.43;62.38
7058;BME280;3570;43.080;25.628;2022-07-23T00:33:07;-20138.81;;;23.63;62.09
7058;BME280;3570;43.080;25.628;2022-07-23T00:35:51;-20137.38;;;23.58;62.48
7058;BME280;3570;43.080;25.628;2022-07-23T00:38:35;-20132.72;;;23.42;62.48
7058;BME280;3570;43.080;25.628;2022-07-23T00:41:19;-20127.97;;;23.25;63.22
7058;BME280;3570;43.080;25.628;2022-07-23T00:44:20;-20132.44;;;23.41;63.08
7058;BME280;3570;43.080;25.628;2022-07-23T00:47:05;-20126.81;;;23.21;62.48
7058;BME280;3570;43.080;25.628;2022-07-23T00:49:49;-20128.97;;;23.28;62.27
7058;BME280;3570;43.080;25.628;2022-07-23T00:52:34;-20125.66;;;23.17;63.09
7058;BME280;3570;43.080;25.628;2022-07-23T00:55:19;-20108.16;;;22.56;62.52
7058;BME280;3570;43.080;25.628;2022-07-23T00:58:03;-20094.69;;;22.09;64.76
7058;BME280;3570;43.080;25.628;2022-07-23T01:00:48;-20077.19;;;21.48;64.15
7058;BME280;3570;43.080;25.628;2022-07-23T01:03:32;-20050.97;;;20.57;65.75
7058;BME280;3570;43.080;25.628;2022-07-23T01:06:16;-20052.25;;;20.62;66.45
7058;BME280;3570;43.080;25.628;2022-07-23T01:09:00;-20055.16;;;20.72;69.75
7058;BME280;3570;43.080;25.628;2022-07-23T01:11:44;-20063.88;;;21.02;69.57
7058;BME280;3570;43.080;25.628;2022-07-23T01:14:28;-20073.28;;;21.35;68.36
7058;BME280;3570;43.080;25.628;2022-07-23T01:17:12;-20087.31;;;21.84;67.78
7058;BME280;3570;43.080;25.628;2022-07-23T01:19:55;-20097.31;;;22.18;66.69
7058;BME280;3570;43.080;25.628;2022-07-23T01:22:39;-20106.69;;;22.51;66.33
7058;BME280;3570;43.080;25.628;2022-07-23T01:25:24;-20097.16;;;22.18;62.57
7058;BME280;3570;43.080;25.628;2022-07-23T01:28:11;-20092.25;;;22.01;64.80
7058;BME280;3570;43.080;25.628;2022-07-23T01:30:55;-20087.47;;;21.84;67.64
7058;BME280;3570;43.080;25.628;2022-07-23T01:33:39;-20094.13;;;22.07;67.51
7058;BME280;3570;43.080;25.628;2022-07-23T01:36:23;-20103.53;;;22.40;65.02
7058;BME280;3570;43.080;25.628;2022-07-23T01:39:07;-20079.78;;;21.58;63.13
7058;BME280;3570;43.080;25.628;2022-07-23T01:41:51;-20078.63;;;21.53;67.33
7058;BME280;3570;43.080;25.628;2022-07-23T01:44:35;-20079.06;;;21.55;65.56
7058;BME280;3570;43.080;25.628;2022-07-23T01:47:19;-20067.75;;;21.16;67.38
7058;BME280;3570;43.080;25.628;2022-07-23T01:50:03;-20064.88;;;21.06;66.67
7058;BME280;3570;43.080;25.628;2022-07-23T01:52:47;-20069.38;;;21.21;68.94
7058;BME280;3570;43.080;25.628;2022-07-23T01:55:31;-20078.78;;;21.54;67.71
7058;BME280;3570;43.080;25.628;2022-07-23T01:58:15;-20094.25;;;22.08;67.58
7058;BME280;3570;43.080;25.628;2022-07-23T02:01:00;-20103.66;;;22.40;66.07
7058;BME280;3570;43.080;25.628;2022-07-23T02:03:44;-20098.88;;;22.24;66.34
7058;BME280;3570;43.080;25.628;2022-07-23T02:06:28;-20107.00;;;22.52;66.30
7058;BME280;3570;43.080;25.628;2022-07-23T02:09:12;-20106.13;;;22.49;66.79
7058;BME280;3570;43.080;25.628;2022-07-23T02:11:56;-20107.28;;;22.53;66.51
7058;BME280;3570;43.080;25.628;2022-07-23T02:14:41;-20107.72;;;22.55;66.84
7058;BME280;3570;43.080;25.628;2022-07-23T02:17:25;-20111.19;;;22.67;67.02
7058;BME280;3570;43.080;25.628;2022-07-23T02:20:10;-20103.22;;;22.39;66.84
7058;BME280;3570;43.080;25.628;2022-07-23T02:22:54;-20103.66;;;22.40;66.59
7058;BME280;3570;43.080;25.628;2022-07-23T02:25:38;-20102.22;;;22.35;67.02
7058;BME280;3570;43.080;25.628;2022-07-23T02:28:22;-20101.06;;;22.31;67.75
7058;BME280;3570;43.080;25.628;2022-07-23T02:31:06;-20100.78;;;22.30;66.56
7058;BME280;3570;43.080;25.628;2022-07-23T02:33:50;-20086.00;;;21.79;67.00
7058;BME280;3570;43.080;25.628;2022-07-23T02:36:34;-20076.59;;;21.46;69.17
7058;BME280;3570;43.080;25.628;2022-07-23T02:39:18;-20073.13;;;21.34;68.91
7058;BME280;3570;43.080;25.628;2022-07-23T02:42:03;-20055.75;;;20.74;69.74
7058;BME280;3570;43.080;25.628;2022-07-23T02:44:47;-20044.59;;;20.35;70.55
7058;BME280;3570;43.080;25.628;2022-07-23T02:47:31;-20035.16;;;20.03;71.91
7058;BME280;3570;43.080;25.628;2022-07-23T02:50:16;-20045.03;;;20.37;73.50
7058;BME280;3570;43.080;25.628;2022-07-23T02:53:00;-20064.88;;;21.06;72.16
7058;BME280;3570;43.080;25.628;2022-07-23T02:55:44;-20076.16;;;21.45;69.34
7058;BME280;3570;43.080;25.628;2022-07-23T02:58:28;-20076.47;;;21.46;67.06
7058;BME280;3570;43.080;25.628;2022-07-23T03:01:12;-20060.81;;;20.92;68.31
7058;BME280;3570;43.080;25.628;2022-07-23T03:03:56;-20068.50;;;21.18;69.59
7058;BME280;3570;43.080;25.628;2022-07-23T03:06:40;-20069.38;;;21.21;68.91
7058;BME280;3570;43.080;25.628;2022-07-23T03:09:24;-20062.41;;;20.97;69.76
7058;BME280;3570;43.080;25.628;2022-07-23T03:12:08;-20054.88;;;20.71;72.69
7058;BME280;3570;43.080;25.628;2022-07-23T03:14:52;-20049.94;;;20.54;71.14
7058;BME280;3570;43.080;25.628;2022-07-23T03:17:36;-20041.53;;;20.25;73.39
7058;BME280;3570;43.080;25.628;2022-07-23T03:20:20;-20030.81;;;19.88;74.37
7058;BME280;3570;43.080;25.628;2022-07-23T03:23:03;-20027.19;;;19.75;76.94
7058;BME280;3570;43.080;25.628;2022-07-23T03:25:48;-20029.78;;;19.84;75.10
7058;BME280;3570;43.080;25.628;2022-07-23T03:28:34;-20043.84;;;20.33;76.25
7058;BME280;3570;43.080;25.628;2022-07-23T03:31:18;-20067.19;;;21.14;73.28
7058;BME280;3570;43.080;25.628;2022-07-23T03:34:02;-20078.06;;;21.51;70.68
7058;BME280;3570;43.080;25.628;2022-07-23T03:36:46;-20089.34;;;21.91;69.55
7058;BME280;3570;43.080;25.628;2022-07-23T03:39:30;-20096.13;;;22.14;67.70
7058;BME280;3570;43.080;25.628;2022-07-23T03:42:14;-20096.59;;;22.16;66.41
7058;BME280;3570;43.080;25.628;2022-07-23T03:44:58;-20083.13;;;21.69;68.69
7058;BME280;3570;43.080;25.628;2022-07-23T03:47:42;-20095.41;;;22.12;68.09
7058;BME280;3570;43.080;25.628;2022-07-23T03:50:28;-20083.25;;;21.70;67.84
7058;BME280;3570;43.080;25.628;2022-07-23T03:53:12;-20073.84;;;21.37;69.31
7058;BME280;3570;43.080;25.628;2022-07-23T03:55:56;-20065.59;;;21.08;72.37
7058;BME280;3570;43.080;25.628;2022-07-23T03:58:40;-20064.00;;;21.03;71.47
7058;BME280;3570;43.080;25.628;2022-07-23T04:01:24;-20073.28;;;21.35;71.40
7058;BME280;3570;43.080;25.628;2022-07-23T04:04:08;-20069.94;;;21.23;70.20
7058;BME280;3570;43.080;25.628;2022-07-23T04:06:52;-20076.31;;;21.45;71.87
7058;BME280;3570;43.080;25.628;2022-07-23T04:09:36;-20083.69;;;21.71;71.29
7058;BME280;3570;43.080;25.628;2022-07-23T04:12:20;-20090.78;;;21.96;68.73
7058;BME280;3570;43.080;25.628;2022-07-23T04:15:04;-20097.75;;;22.20;66.80
7058;BME280;3570;43.080;25.628;2022-07-23T04:17:50;-20109.47;;;22.61;67.21
7058;BME280;3570;43.080;25.628;2022-07-23T04:20:34;-20113.94;;;22.76;66.09
7058;BME280;3570;43.080;25.628;2022-07-23T04:23:18;-20114.38;;;22.78;66.02
7058;BME280;3570;43.080;25.628;2022-07-23T04:26:03;-20124.94;;;23.14;64.75
7058;BME280;3570;43.080;25.628;2022-07-23T04:28:47;-20127.81;;;23.24;64.85
7058;BME280;3570;43.080;25.628;2022-07-23T04:31:31;-20131.88;;;23.39;64.07
7058;BME280;3570;43.080;25.628;2022-07-23T04:34:15;-20134.75;;;23.49;63.31
7058;BME280;3570;43.080;25.628;2022-07-23T04:36:59;-20133.88;;;23.46;64.72
7058;BME280;3570;43.080;25.628;2022-07-23T04:39:43;-20128.81;;;23.28;65.60
7058;BME280;3570;43.080;25.628;2022-07-23T04:42:28;-20136.22;;;23.54;65.92
7058;BME280;3570;43.080;25.628;2022-07-23T04:45:12;-20136.34;;;23.54;64.38
7058;BME280;3570;43.080;25.628;2022-07-23T04:47:56;-20149.06;;;23.98;63.58
7058;BME280;3570;43.080;25.628;2022-07-23T04:50:41;-20155.72;;;24.21;62.79
7058;BME280;3570;43.080;25.628;2022-07-23T04:53:26;-20154.97;;;24.19;62.50
7058;BME280;3570;43.080;25.628;2022-07-23T04:56:10;-20154.13;;;24.16;62.92
7058;BME280;3570;43.080;25.628;2022-07-23T04:58:54;-20148.06;;;23.95;62.79
7058;BME280;3570;43.080;25.628;2022-07-23T05:01:38;-20150.94;;;24.05;62.50
7058;BME280;3570;43.080;25.628;2022-07-23T05:04:22;-20132.44;;;23.41;64.40
7058;BME280;3570;43.080;25.628;2022-07-23T05:07:06;-20126.81;;;23.21;64.75
7058;BME280;3570;43.080;25.628;2022-07-23T05:09:50;-20132.44;;;23.41;64.22
7058;BME280;3570;43.080;25.628;2022-07-23T05:12:34;-20123.19;;;23.08;64.32
7058;BME280;3570;43.080;25.628;2022-07-23T05:15:18;-20121.16;;;23.01;65.07
7058;BME280;3570;43.080;25.628;2022-07-23T05:18:02;-20136.63;;;23.55;63.77
7058;BME280;3570;43.080;25.628;2022-07-23T05:20:46;-20140.97;;;23.70;63.79
7058;BME280;3570;43.080;25.628;2022-07-23T05:23:33;-20148.78;;;23.97;63.12
7058;BME280;3570;43.080;25.628;2022-07-23T05:26:17;-20154.84;;;24.18;61.38
7058;BME280;3570;43.080;25.628;2022-07-23T05:29:01;-20158.16;;;24.30;60.75
7058;BME280;3570;43.080;25.628;2022-07-23T05:31:46;-20158.31;;;24.31;60.39
7058;BME280;3570;43.080;25.628;2022-07-23T05:34:30;-20160.19;;;24.37;60.92
7058;BME280;3570;43.080;25.628;2022-07-23T05:37:14;-20167.53;;;24.63;60.44
7058;BME280;3570;43.080;25.628;2022-07-23T05:40:03;-20176.06;;;24.92;59.42
7058;BME280;3570;43.080;25.628;2022-07-23T05:42:47;-20181.53;;;25.11;58.48
7058;BME280;3570;43.080;25.628;2022-07-23T05:45:31;-20186.88;;;25.30;56.92
7058;BME280;3570;43.080;25.628;2022-07-23T05:48:15;-20190.94;;;25.44;57.30
7058;BME280;3570;43.080;25.628;2022-07-23T05:51:00;-20193.38;;;25.53;58.04
7058;BME280;3570;43.080;25.628;2022-07-23T05:53:44;-20192.66;;;25.50;57.13
7058;BME280;3570;43.080;25.628;2022-07-23T05:56:28;-20198.72;;;25.71;57.26
7058;BME280;3570;43.080;25.628;2022-07-23T05:59:12;-20202.03;;;25.83;56.75
7058;BME280;3570;43.080;25.628;2022-07-23T06:01:58;-20213.56;;;26.23;55.71
7058;BME280;3570;43.080;25.628;2022-07-23T06:04:42;-20215.28;;;26.29;55.96
7058;BME280;3570;43.080;25.628;2022-07-23T06:07:26;-20214.88;;;26.28;55.55
7058;BME280;3570;43.080;25.628;2022-07-23T06:10:10;-20226.41;;;26.68;54.48
7058;BME280;3570;43.080;25.628;2022-07-23T06:12:54;-20229.00;;;26.77;54.13
7058;BME280;3570;43.080;25.628;2022-07-23T06:15:38;-20225.66;;;26.65;53.50
7058;BME280;3570;43.080;25.628;2022-07-23T06:18:22;-20226.81;;;26.69;54.97
7058;BME280;3570;43.080;25.628;2022-07-23T06:21:06;-20235.47;;;26.99;53.95
7058;BME280;3570;43.080;25.628;2022-07-23T06:23:50;-20238.94;;;27.12;52.71
7058;BME280;3570;43.080;25.628;2022-07-23T06:26:34;-20238.94;;;27.12;52.77
7058;BME280;3570;43.080;25.628;2022-07-23T06:29:18;-20244.69;;;27.32;52.31
7058;BME280;3570;43.080;25.628;2022-07-23T06:32:02;-20245.41;;;27.34;52.31
7058;BME280;3570;43.080;25.628;2022-07-23T06:34:46;-20234.91;;;26.97;52.43
7058;BME280;3570;43.080;25.628;2022-07-23T06:37:30;-20239.78;;;27.15;52.87
7058;BME280;3570;43.080;25.628;2022-07-23T06:40:14;-20250.88;;;27.53;51.31
7058;BME280;3570;43.080;25.628;2022-07-23T06:42:58;-20256.94;;;27.74;50.61
7058;BME280;3570;43.080;25.628;2022-07-23T06:45:42;-20260.38;;;27.86;51.03
7058;BME280;3570;43.080;25.628;2022-07-23T06:48:26;-20252.59;;;27.59;51.02
7058;BME280;3570;43.080;25.628;2022-07-23T06:51:12;-20263.84;;;27.99;50.19
7058;BME280;3570;43.080;25.628;2022-07-23T06:53:56;-20270.88;;;28.23;50.66
7058;BME280;3570;43.080;25.628;2022-07-23T06:56:40;-20280.22;;;28.56;50.31
7058;BME280;3570;43.080;25.628;2022-07-23T06:59:24;-20282.09;;;28.62;49.90
7058;BME280;3570;43.080;25.628;2022-07-23T07:02:09;-20286.72;;;28.78;49.67
7058;BME280;3570;43.080;25.628;2022-07-23T07:04:53;-20291.16;;;28.94;49.20
7058;BME280;3570;43.080;25.628;2022-07-23T07:07:37;-20297.34;;;29.16;49.01
7058;BME280;3570;43.080;25.628;2022-07-23T07:10:21;-20294.47;;;29.06;47.68
7058;BME280;3570;43.080;25.628;2022-07-23T07:13:06;-20308.25;;;29.54;47.66
7058;BME280;3570;43.080;25.628;2022-07-23T07:15:50;-20315.44;;;29.79;46.85
7058;BME280;3570;43.080;25.628;2022-07-23T07:18:34;-20322.75;;;30.05;46.37
7058;BME280;3570;43.080;25.628;2022-07-23T07:21:19;-20331.81;;;30.36;46.40
7058;BME280;3570;43.080;25.628;2022-07-23T07:24:03;-20338.13;;;30.58;45.70
7058;BME280;3570;43.080;25.628;2022-07-23T07:26:47;-20346.31;;;30.87;44.68
7058;BME280;3570;43.080;25.628;2022-07-23T07:29:31;-20353.34;;;31.12;44.50
7058;BME280;3570;43.080;25.628;2022-07-23T07:32:15;-20355.06;;;31.18;42.99
7058;BME280;3570;43.080;25.628;2022-07-23T07:34:59;-20361.66;;;31.41;42.95
7058;BME280;3570;43.080;25.628;2022-07-23T07:37:43;-20365.66;;;31.55;42.96
7058;BME280;3570;43.080;25.628;2022-07-23T07:40:27;-20368.25;;;31.64;42.20
7058;BME280;3570;43.080;25.628;2022-07-23T07:43:11;-20364.09;;;31.49;40.67
7058;BME280;3570;43.080;25.628;2022-07-23T07:45:55;-20362.81;;;31.45;40.10
7058;BME280;3570;43.080;25.628;2022-07-23T07:48:39;-20377.13;;;31.95;39.39
7058;BME280;3570;43.080;25.628;2022-07-23T07:51:23;-20379.72;;;32.04;39.52
7058;BME280;3570;43.080;25.628;2022-07-23T07:54:07;-20390.75;;;32.43;40.64
7058;BME280;3570;43.080;25.628;2022-07-23T07:56:51;-20398.03;;;32.69;38.67
7058;BME280;3570;43.080;25.628;2022-07-23T07:59:35;-20406.06;;;32.97;39.05
7058;BME280;3570;43.080;25.628;2022-07-23T08:02:20;-20414.66;;;33.27;38.00
7058;BME280;3570;43.080;25.628;2022-07-23T08:05:04;-20420.94;;;33.49;36.55
7058;BME280;3570;43.080;25.628;2022-07-23T08:07:48;-20415.78;;;33.31;36.75
7058;BME280;3570;43.080;25.628;2022-07-23T08:10:33;-20421.09;;;33.50;36.83
7058;BME280;3570;43.080;25.628;2022-07-23T08:13:17;-20426.53;;;33.69;35.33
7058;BME280;3570;43.080;25.628;2022-07-23T08:16:01;-20432.38;;;33.89;35.66
7058;BME280;3570;43.080;25.628;2022-07-23T08:18:46;-20433.81;;;33.94;35.48
7058;BME280;3570;43.080;25.628;2022-07-23T08:21:30;-20427.66;;;33.73;35.77
7058;BME280;3570;43.080;25.628;2022-07-23T08:24:14;-20432.66;;;33.90;35.53
7058;BME280;3570;43.080;25.628;2022-07-23T08:26:58;-20442.38;;;34.25;36.39
7058;BME280;3570;43.080;25.628;2022-07-23T08:29:42;-20449.25;;;34.49;35.23
7058;BME280;3570;43.080;25.628;2022-07-23T08:32:26;-20448.53;;;34.46;34.17
7058;BME280;3570;43.080;25.628;2022-07-23T08:35:10;-20446.09;;;34.38;35.03
7058;BME280;3570;43.080;25.628;2022-07-23T08:37:55;-20455.53;;;34.71;34.48
7058;BME280;3570;43.080;25.628;2022-07-23T08:40:41;-20468.38;;;35.16;34.13
7058;BME280;3570;43.080;25.628;2022-07-23T08:43:30;-20476.66;;;35.45;33.02
7058;BME280;3570;43.080;25.628;2022-07-23T08:46:18;-20487.50;;;35.83;31.41
7058;BME280;3570;43.080;25.628;2022-07-23T08:49:03;-20490.09;;;35.92;30.50
7058;BME280;3570;43.080;25.628;2022-07-23T08:51:48;-20501.78;;;36.34;31.07
7058;BME280;3570;43.080;25.628;2022-07-23T08:54:32;-20498.06;;;36.21;30.28
7058;BME280;3570;43.080;25.628;2022-07-23T08:57:18;-20505.34;;;36.46;30.14
7058;BME280;3570;43.080;25.628;2022-07-23T09:00:03;-20508.63;;;36.58;29.64
7058;BME280;3570;43.080;25.628;2022-07-23T09:02:47;-20514.59;;;36.79;30.04
7058;BME280;3570;43.080;25.628;2022-07-23T09:05:32;-20517.16;;;36.88;28.57
7058;BME280;3570;43.080;25.628;2022-07-23T09:08:21;-20524.28;;;37.13;29.16
7058;BME280;3570;43.080;25.628;2022-07-23T09:11:11;-20527.00;;;37.23;28.85
7058;BME280;3570;43.080;25.628;2022-07-23T09:13:56;-20523.56;;;37.11;29.00
7058;BME280;3570;43.080;25.628;2022-07-23T09:16:42;-20526.56;;;37.21;28.95
7058;BME280;3570;43.080;25.628;2022-07-23T09:19:28;-20524.44;;;37.14;27.88
7058;BME280;3570;43.080;25.628;2022-07-23T09:22:21;-20528.00;;;37.26;28.76
7058;BME280;3570;43.080;25.628;2022-07-23T09:25:18;-20533.25;;;37.45;28.29
7058;BME280;3570;43.080;25.628;2022-07-23T09:28:04;-20522.59;;;37.07;28.33
7058;BME280;3570;43.080;25.628;2022-07-23T09:30:51;-20519.16;;;36.95;28.75
7058;BME280;3570;43.080;25.628;2022-07-23T09:33:37;-20553.31;;;38.16;26.80
7058;BME280;3570;43.080;25.628;2022-07-23T09:36:29;-20587.72;;;39.37;22.96
7058;BME280;3570;43.080;25.628;2022-07-23T09:39:16;-20583.91;;;39.24;23.53
7058;BME280;3570;43.080;25.628;2022-07-23T09:42:23;-20595.81;;;39.66;24.17
7058;BME280;3570;43.080;25.628;2022-07-23T09:45:10;-20624.91;;;40.69;23.24
7058;BME280;3570;43.080;25.628;2022-07-23T09:48:14;-20633.56;;;41.00;23.06
7058;BME280;3570;43.080;25.628;2022-07-23T09:51:02;-20642.50;;;41.32;22.77
7058;BME280;3570;43.080;25.628;2022-07-23T09:53:50;-20663.31;;;42.05;20.68
7058;BME280;3570;43.080;25.628;2022-07-23T09:56:37;-20662.03;;;42.01;21.47
7058;BME280;3570;43.080;25.628;2022-07-23T09:59:26;-20651.13;;;41.62;21.49
7058;BME280;3570;43.080;25.628;2022-07-23T10:02:12;-20639.66;;;41.21;21.22
7058;BME280;3570;43.080;25.628;2022-07-23T10:05:01;-20655.25;;;41.77;20.87
7058;BME280;3570;43.080;25.628;2022-07-23T10:07:48;-20671.66;;;42.35;21.18
7058;BME280;3570;43.080;25.628;2022-07-23T10:10:32;-20698.13;;;43.29;20.35
7058;BME280;3570;43.080;25.628;2022-07-23T10:13:16;-20684.97;;;42.82;19.99
7058;BME280;3570;43.080;25.628;2022-07-23T10:16:07;-20686.53;;;42.88;21.61
7058;BME280;3570;43.080;25.628;2022-07-23T10:18:52;-20685.81;;;42.85;20.48
7058;BME280;3570;43.080;25.628;2022-07-23T10:21:46;-20711.53;;;43.77;18.90
7058;BME280;3570;43.080;25.628;2022-07-23T10:33:37;-20699.53;;;43.34;19.22
7058;BME280;3570;43.080;25.628;2022-07-23T10:36:44;-20725.09;;;44.25;19.38
7058;BME280;3570;43.080;25.628;2022-07-23T10:39:32;-20706.75;;;43.60;19.45
7058;BME280;3570;43.080;25.628;2022-07-23T10:42:17;-20703.19;;;43.47;19.03
7058;BME280;3570;43.080;25.628;2022-07-23T10:45:22;-20719.44;;;44.05;19.04
7058;BME280;3570;43.080;25.628;2022-07-23T10:48:24;-20724.09;;;44.22;18.20
7058;BME280;3570;43.080;25.628;2022-07-23T10:51:16;-20746.25;;;45.01;18.79
7058;BME280;3570;43.080;25.628;2022-07-23T10:54:00;-20766.13;;;45.72;17.89
7058;BME280;3570;43.080;25.628;2022-07-23T10:57:04;-20772.47;;;45.94;18.28
7058;BME280;3570;43.080;25.628;2022-07-23T11:02:48;-20763.31;;;45.61;17.96
7058;BME280;3570;43.080;25.628;2022-07-23T11:05:43;-20761.34;;;45.54;17.57
7058;BME280;3570;43.080;25.628;2022-07-23T11:08:28;-20784.16;;;46.36;17.20
7058;BME280;3570;43.080;25.628;2022-07-23T11:11:12;-20788.50;;;46.52;17.26
7058;BME280;3570;43.080;25.628;2022-07-23T11:13:56;-20809.47;;;47.26;16.75
7058;BME280;3570;43.080;25.628;2022-07-23T11:16:46;-20771.91;;;45.92;16.86
7058;BME280;3570;43.080;25.628;2022-07-23T11:22:58;-20795.25;;;46.76;16.69
7058;BME280;3570;43.080;25.628;2022-07-23T11:25:42;-20821.41;;;47.69;15.74
7058;BME280;3570;43.080;25.628;2022-07-23T11:28:28;-20823.53;;;47.77;15.71
7058;BME280;3570;43.080;25.628;2022-07-23T11:31:18;-20796.25;;;46.79;15.77
7058;BME280;3570;43.080;25.628;2022-07-23T11:37:28;-20773.88;;;45.99;16.48
7058;BME280;3570;43.080;25.628;2022-07-23T11:40:16;-20768.09;;;45.79;16.61
7058;BME280;3570;43.080;25.628;2022-07-23T11:43:02;-20769.50;;;45.84;16.99
7058;BME280;3570;43.080;25.628;2022-07-23T11:45:52;-20776.25;;;46.08;16.79
7058;BME280;3570;43.080;25.628;2022-07-23T11:48:37;-20784.28;;;46.36;16.42
7058;BME280;3570;43.080;25.628;2022-07-23T11:51:27;-20793.84;;;46.71;16.93
7058;BME280;3570;43.080;25.628;2022-07-23T11:54:11;-20818.59;;;47.59;15.62
7058;BME280;3570;43.080;25.628;2022-07-23T11:56:59;-20824.22;;;47.79;15.06
7058;BME280;3570;43.080;25.628;2022-07-23T11:59:43;-20806.22;;;47.15;15.18
7058;BME280;3570;43.080;25.628;2022-07-23T12:02:30;-20826.03;;;47.86;15.11
7058;BME280;3570;43.080;25.628;2022-07-23T12:05:23;-20803.44;;;47.05;15.17
7058;BME280;3570;43.080;25.628;2022-07-23T12:08:09;-20727.78;;;44.35;16.05
7058;BME280;3570;43.080;25.628;2022-07-23T12:10:54;-20765.97;;;45.71;15.70
7058;BME280;3570;43.080;25.628;2022-07-23T12:13:38;-20797.78;;;46.85;15.79
7058;BME280;3570;43.080;25.628;2022-07-23T12:16:22;-20743.72;;;44.92;15.37
7058;BME280;3570;43.080;25.628;2022-07-23T12:19:06;-20720.00;;;44.07;16.89
7058;BME280;3570;43.080;25.628;2022-07-23T12:21:50;-20744.28;;;44.94;16.36
7058;BME280;3570;43.080;25.628;2022-07-23T12:24:54;-20700.09;;;43.36;16.75
7058;BME280;3570;43.080;25.628;2022-07-23T12:27:38;-20696.28;;;43.23;17.07
7058;BME280;3570;43.080;25.628;2022-07-23T12:33:11;-20769.94;;;45.85;15.87
7058;BME280;3570;43.080;25.628;2022-07-23T12:35:58;-20789.34;;;46.55;15.21
7058;BME280;3570;43.080;25.628;2022-07-23T12:38:47;-20808.34;;;47.22;15.03
7058;BME280;3570;43.080;25.628;2022-07-23T12:41:51;-20833.50;;;48.12;14.85
7058;BME280;3570;43.080;25.628;2022-07-23T12:44:36;-20851.88;;;48.78;14.81
7058;BME280;3570;43.080;25.628;2022-07-23T12:47:20;-20883.97;;;49.93;13.75
7058;BME280;3570;43.080;25.628;2022-07-23T12:50:04;-20886.19;;;50.02;13.96
7058;BME280;3570;43.080;25.628;2022-07-23T12:52:48;-20832.94;;;48.10;14.41
7058;BME280;3570;43.080;25.628;2022-07-23T12:55:33;-20840.22;;;48.37;14.39
7058;BME280;3570;43.080;25.628;2022-07-23T12:58:19;-20892.09;;;50.23;13.40
7058;BME280;3570;43.080;25.628;2022-07-23T13:01:04;-20916.56;;;51.11;13.07
7058;BME280;3570;43.080;25.628;2022-07-23T13:03:58;-20921.03;;;51.27;12.31
7058;BME280;3570;43.080;25.628;2022-07-23T13:09:32;-20917.53;;;51.14;13.28
7058;BME280;3570;43.080;25.628;2022-07-23T13:12:16;-20976.00;;;53.25;12.42
7058;BME280;3570;43.080;25.628;2022-07-23T13:15:00;-20981.59;;;53.45;11.91
7058;BME280;3570;43.080;25.628;2022-07-23T13:17:44;-20900.63;;;50.53;12.47
7058;BME280;3570;43.080;25.628;2022-07-23T13:20:29;-20810.59;;;47.30;14.22
7058;BME280;3570;43.080;25.628;2022-07-23T13:23:15;-20841.91;;;48.43;14.24
7058;BME280;3570;43.080;25.628;2022-07-23T13:25:59;-20847.94;;;48.64;13.80
7058;BME280;3570;43.080;25.628;2022-07-23T13:28:44;-20876.69;;;49.67;13.98
7058;BME280;3570;43.080;25.628;2022-07-23T13:31:28;-20887.59;;;50.07;13.86
7058;BME280;3570;43.080;25.628;2022-07-23T13:34:12;-20870.25;;;49.44;12.75
7058;BME280;3570;43.080;25.628;2022-07-23T13:36:56;-20843.19;;;48.47;13.14
7058;BME280;3570;43.080;25.628;2022-07-23T13:39:39;-20890.25;;;50.16;13.02
7058;BME280;3570;43.080;25.628;2022-07-23T13:42:24;-20949.66;;;52.30;11.72
7058;BME280;3570;43.080;25.628;2022-07-23T13:45:08;-20922.44;;;51.32;11.82
7058;BME280;3570;43.080;25.628;2022-07-23T13:47:53;-20932.06;;;51.66;12.18
7058;BME280;3570;43.080;25.628;2022-07-23T13:50:37;-20914.31;;;51.03;12.13
7058;BME280;3570;43.080;25.628;2022-07-23T13:53:23;-20878.91;;;49.75;11.83
7058;BME280;3570;43.080;25.628;2022-07-23T13:56:07;-20901.59;;;50.57;12.41
7058;BME280;3570;43.080;25.628;2022-07-23T13:58:51;-20914.75;;;51.04;11.81
7058;BME280;3570;43.080;25.628;2022-07-23T14:01:35;-20930.53;;;51.61;11.98
7058;BME280;3570;43.080;25.628;2022-07-23T14:04:20;-20937.94;;;51.88;11.76
7058;BME280;3570;43.080;25.628;2022-07-23T14:07:04;-20922.16;;;51.31;11.94
7058;BME280;3570;43.080;25.628;2022-07-23T14:09:48;-20952.44;;;52.40;11.63
7058;BME280;3570;43.080;25.628;2022-07-23T14:12:33;-20969.31;;;53.01;10.84
7058;BME280;3570;43.080;25.628;2022-07-23T14:15:17;-20989.53;;;53.74;10.80
7058;BME280;3570;43.080;25.628;2022-07-23T14:18:01;-20983.81;;;53.53;10.94
7058;BME280;3570;43.080;25.628;2022-07-23T14:20:45;-20989.53;;;53.74;10.37
7058;BME280;3570;43.080;25.628;2022-07-23T14:23:29;-20946.16;;;52.17;12.14
7058;BME280;3570;43.080;25.628;2022-07-23T14:26:13;-20941.28;;;52.00;11.97
7058;BME280;3570;43.080;25.628;2022-07-23T14:28:57;-20963.59;;;52.80;11.37
7058;BME280;3570;43.080;25.628;2022-07-23T14:31:40;-20941.56;;;52.01;11.41
7058;BME280;3570;43.080;25.628;2022-07-23T14:34:25;-20894.31;;;50.31;12.21
7058;BME280;3570;43.080;25.628;2022-07-23T14:37:10;-20902.56;;;50.60;12.82
7058;BME280;3570;43.080;25.628;2022-07-23T14:39:55;-20899.66;;;50.50;12.23
7058;BME280;3570;43.080;25.628;2022-07-23T14:42:39;-20887.88;;;50.08;12.93
7058;BME280;3570;43.080;25.628;2022-07-23T14:45:23;-20910.28;;;50.88;11.89
7058;BME280;3570;43.080;25.628;2022-07-23T14:48:07;-20923.53;;;51.36;11.93
7058;BME280;3570;43.080;25.628;2022-07-23T14:50:51;-20944.78;;;52.12;11.84
7058;BME280;3570;43.080;25.628;2022-07-23T14:53:36;-20967.94;;;52.96;11.45
7058;BME280;3570;43.080;25.628;2022-07-23T14:56:20;-20978.38;;;53.33;11.82
7058;BME280;3570;43.080;25.628;2022-07-23T14:59:05;-20953.56;;;52.44;11.42